Time;durP1;ratioP1;P1;durP2;ratioP2;P2;SDS_P1;SDS_P2;PMS_P1;PMS_P2;Temp;Humidity;BMP_temperature;BMP_pressure;BME280_temperature;BME280_humidity;BME280_pressure;Samples;Min_cycle;Max_cycle;Signal;HPM_P1;HPM_P2
2022/09/15 00:01:02;;;;;;;1.20;0.50;;;;;;;;;;5051759;28;20452;-70
2022/09/15 00:03:29;;;;;;;0.40;0.40;;;;;;;;;;5049170;28;20433;-70
2022/09/15 00:05:56;;;;;;;0.50;0.20;;;;;;;;;;5051515;28;20433;-70
2022/09/15 00:08:27;;;;;;;0.30;0.30;;;;;;;;;;5051287;28;20436;-70
2022/09/15 00:11:02;;;;;;;0.20;0.20;;;;;;;;;;5051706;28;20440;-71
2022/09/15 00:13:29;;;;;;;0.20;0.20;;;;;;;;;;5050822;28;20437;-70
2022/09/15 00:16:02;;;;;;;0.20;0.20;;;;;;;;;;5049137;28;20953;-70
2022/09/15 00:18:30;;;;;;;0.40;0.20;;;;;;;;;;5044476;28;20425;-69
2022/09/15 00:20:57;;;;;;;0.30;0.25;;;;;;;;;;5050935;28;20425;-70
2022/09/15 00:23:24;;;;;;;0.30;0.30;;;;;;;;;;5050601;28;20826;-70
2022/09/15 00:25:52;;;;;;;0.55;0.30;;;;;;;;;;5045883;28;20436;-70
2022/09/15 00:28:20;;;;;;;0.50;0.30;;;;;;;;;;5050767;28;21101;-70
2022/09/15 00:30:48;;;;;;;0.20;0.20;;;;;;;;;;5044184;28;20431;-70
2022/09/15 00:33:19;;;;;;;0.40;0.25;;;;;;;;;;5034473;28;20530;-70
2022/09/15 00:35:53;;;;;;;0.20;0.20;;;;;;;;;;5050959;28;20484;-71
2022/09/15 00:38:20;;;;;;;0.45;0.40;;;;;;;;;;5049396;28;20974;-70
2022/09/15 00:40:50;;;;;;;0.40;0.40;;;;;;;;;;5051056;28;20547;-70
2022/09/15 00:43:19;;;;;;;0.30;0.30;;;;;;;;;;5049629;28;20429;-70
2022/09/15 00:45:47;;;;;;;0.25;0.25;;;;;;;;;;5051075;28;20922;-70
2022/09/15 00:48:16;;;;;;;0.40;0.40;;;;;;;;;;5042255;28;20440;-70
2022/09/15 00:50:45;;;;;;;0.40;0.40;;;;;;;;;;5031123;28;20439;-71
2022/09/15 00:53:13;;;;;;;0.38;0.30;;;;;;;;;;5047886;28;20927;-71
2022/09/15 00:55:42;;;;;;;0.35;0.35;;;;;;;;;;5050739;28;20834;-72
2022/09/15 00:58:15;;;;;;;0.30;0.30;;;;;;;;;;5050048;28;20481;-71
2022/09/15 01:00:46;;;;;;;0.30;0.30;;;;;;;;;;5050661;28;20480;-71
2022/09/15 01:03:14;;;;;;;0.30;0.30;;;;;;;;;;5046335;28;20437;-71
2022/09/15 01:05:48;;;;;;;0.30;0.30;;;;;;;;;;5037134;28;20450;-71
2022/09/15 01:08:21;;;;;;;0.80;0.30;;;;;;;;;;5041974;28;20437;-71
2022/09/15 01:10:50;;;;;;;0.40;0.30;;;;;;;;;;5049153;28;20486;-71
2022/09/15 01:13:17;;;;;;;0.35;0.28;;;;;;;;;;5049795;28;20429;-70
2022/09/15 01:15:46;;;;;;;0.30;0.30;;;;;;;;;;5027703;28;20433;-71
2022/09/15 01:18:32;;;;;;;0.38;0.38;;;;;;;;;;5063738;28;20472;-70
2022/09/15 01:21:15;;;;;;;0.30;0.30;;;;;;;;;;5050145;28;20490;-71
2022/09/15 01:24:00;;;;;;;0.30;0.30;;;;;;;;;;5049748;28;20433;-70
2022/09/15 01:26:27;;;;;;;0.43;0.38;;;;;;;;;;5047542;28;20430;-70
2022/09/15 01:29:12;;;;;;;0.30;0.30;;;;;;;;;;5049835;28;20429;-70
2022/09/15 01:34:40;;;;;;;0.20;0.20;;;;;;;;;;4998565;28;20456;-70
2022/09/15 01:37:12;;;;;;;0.30;0.30;;;;;;;;;;5064118;28;20433;-70
2022/09/15 01:39:41;;;;;;;0.50;0.40;;;;;;;;;;5048186;28;20935;-70
2022/09/15 01:42:11;;;;;;;0.30;0.30;;;;;;;;;;5049013;28;20433;-71
2022/09/15 01:44:41;;;;;;;0.28;0.28;;;;;;;;;;5036440;28;20440;-71
2022/09/15 01:47:12;;;;;;;0.20;0.20;;;;;;;;;;5049629;28;20487;-71
2022/09/15 01:49:46;;;;;;;0.20;0.20;;;;;;;;;;5048093;28;20432;-72
2022/09/15 01:52:16;;;;;;;0.20;0.20;;;;;;;;;;5049481;28;20429;-71
2022/09/15 01:54:51;;;;;;;0.30;0.30;;;;;;;;;;5046625;28;20769;-71
2022/09/15 01:57:21;;;;;;;0.52;0.10;;;;;;;;;;5048546;28;20429;-72
2022/09/15 01:59:49;;;;;;;0.20;0.20;;;;;;;;;;5050115;28;20787;-72
2022/09/15 02:02:48;;;;;;;0.40;0.40;;;;;;;;;;5048502;28;20440;-72
2022/09/15 02:05:24;;;;;;;0.20;0.20;;;;;;;;;;4987355;28;20538;-73
2022/09/15 02:07:53;;;;;;;0.20;0.20;;;;;;;;;;4993574;28;20445;-73
2022/09/15 02:10:50;;;;;;;0.20;0.20;;;;;;;;;;5021824;28;20445;-73
2022/09/15 02:13:20;;;;;;;0.32;0.32;;;;;;;;;;4995527;28;20432;-73
2022/09/15 02:15:50;;;;;;;0.17;0.17;;;;;;;;;;5005703;28;20989;-74
2022/09/15 02:18:33;;;;;;;0.20;0.20;;;;;;;;;;5004491;28;20920;-74
2022/09/15 02:21:13;;;;;;;0.20;0.20;;;;;;;;;;5010356;28;20430;-74
2022/09/15 02:23:43;;;;;;;0.30;0.30;;;;;;;;;;5018348;28;20436;-75
2022/09/15 02:26:16;;;;;;;0.30;0.30;;;;;;;;;;5005815;28;20954;-75
2022/09/15 02:28:45;;;;;;;0.30;0.30;;;;;;;;;;5008674;28;20906;-76
2022/09/15 02:31:14;;;;;;;0.20;0.20;;;;;;;;;;5007748;28;20475;-77
2022/09/15 02:33:44;;;;;;;0.17;0.17;;;;;;;;;;5006308;28;20479;-77
2022/09/15 02:36:15;;;;;;;0.10;0.10;;;;;;;;;;5008088;28;20440;-78
2022/09/15 02:38:45;;;;;;;0.20;0.20;;;;;;;;;;5009399;28;20432;-80
2022/09/15 02:41:12;;;;;;;0.20;0.20;;;;;;;;;;5034979;28;20433;-80
2022/09/15 02:43:47;;;;;;;0.10;0.10;;;;;;;;;;5049960;28;20479;-81
2022/09/15 02:46:18;;;;;;;0.20;0.20;;;;;;;;;;5049837;28;21195;-81
2022/09/15 02:48:45;;;;;;;0.40;0.10;;;;;;;;;;5054324;28;20551;-81
2022/09/15 02:51:13;;;;;;;0.20;0.20;;;;;;;;;;5055305;28;20440;-82
2022/09/15 02:53:41;;;;;;;0.23;0.23;;;;;;;;;;5054593;28;20444;-80
2022/09/15 02:56:08;;;;;;;0.20;0.20;;;;;;;;;;5055701;28;20434;-81
2022/09/15 02:58:35;;;;;;;0.10;0.10;;;;;;;;;;5054909;28;20911;-81
2022/09/15 03:01:06;;;;;;;0.10;0.10;;;;;;;;;;5055409;28;20451;-80
2022/09/15 03:03:34;;;;;;;0.20;0.20;;;;;;;;;;5036146;28;20491;-80
2022/09/15 03:06:16;;;;;;;0.10;0.10;;;;;;;;;;5057161;28;20489;-81
2022/09/15 03:08:43;;;;;;;0.10;0.10;;;;;;;;;;5064945;28;20487;-82
2022/09/15 03:11:11;;;;;;;0.10;0.10;;;;;;;;;;5067116;28;20435;-82
2022/09/15 03:13:40;;;;;;;0.10;0.10;;;;;;;;;;5070090;28;20433;-82
2022/09/15 03:16:08;;;;;;;0.10;0.10;;;;;;;;;;5062831;28;20976;-82
2022/09/15 03:18:36;;;;;;;0.10;0.10;;;;;;;;;;5048036;28;20468;-82
2022/09/15 03:21:04;;;;;;;0.10;0.10;;;;;;;;;;5072504;28;20427;-83
2022/09/15 03:23:32;;;;;;;0.10;0.10;;;;;;;;;;5053417;28;20586;-82
2022/09/15 03:25:59;;;;;;;0.30;0.10;;;;;;;;;;5054939;28;20838;-82
2022/09/15 03:28:26;;;;;;;0.00;0.00;;;;;;;;;;5053967;28;20433;-82
2022/09/15 03:30:54;;;;;;;0.10;0.10;;;;;;;;;;5052804;28;20938;-83
2022/09/15 03:33:21;;;;;;;0.10;0.10;;;;;;;;;;5053864;28;20463;-83
2022/09/15 03:35:49;;;;;;;0.10;0.10;;;;;;;;;;5054137;28;20429;-82
2022/09/15 03:38:17;;;;;;;0.10;0.10;;;;;;;;;;5053711;28;20436;-81
2022/09/15 03:40:44;;;;;;;0.00;0.00;;;;;;;;;;5053200;28;20428;-82
2022/09/15 03:43:11;;;;;;;0.00;0.00;;;;;;;;;;5035421;28;20428;-82
2022/09/15 03:45:44;;;;;;;0.10;0.10;;;;;;;;;;5053752;28;20429;-83
2022/09/15 03:48:12;;;;;;;0.10;0.10;;;;;;;;;;5048001;28;20453;-82
2022/09/15 03:50:39;;;;;;;0.10;0.10;;;;;;;;;;5045335;28;20490;-82
2022/09/15 03:53:06;;;;;;;0.10;0.10;;;;;;;;;;5053094;28;20483;-82
2022/09/15 03:55:33;;;;;;;0.20;0.20;;;;;;;;;;5047415;28;20433;-81
2022/09/15 03:58:00;;;;;;;0.20;0.20;;;;;;;;;;5053002;28;20433;-81
2022/09/15 04:00:28;;;;;;;0.10;0.10;;;;;;;;;;5052079;28;20479;-81
2022/09/15 04:02:55;;;;;;;0.20;0.20;;;;;;;;;;5055477;28;20429;-81
2022/09/15 04:05:22;;;;;;;0.20;0.20;;;;;;;;;;5053532;28;20502;-82
2022/09/15 04:07:49;;;;;;;0.20;0.20;;;;;;;;;;5052912;28;20425;-81
2022/09/15 04:10:17;;;;;;;0.30;0.30;;;;;;;;;;5053478;28;20429;-81
2022/09/15 04:12:47;;;;;;;0.47;0.47;;;;;;;;;;5053217;28;20433;-81
2022/09/15 04:15:17;;;;;;;0.60;0.60;;;;;;;;;;5073368;28;20436;-80
2022/09/15 04:17:44;;;;;;;0.70;0.70;;;;;;;;;;5057338;28;20425;-78
2022/09/15 04:20:12;;;;;;;1.02;0.95;;;;;;;;;;5063595;28;20473;-79
2022/09/15 04:22:39;;;;;;;0.85;0.85;;;;;;;;;;5033543;28;20431;-80
2022/09/15 04:25:07;;;;;;;1.00;1.00;;;;;;;;;;5047562;28;20939;-79
2022/09/15 04:27:35;;;;;;;0.80;0.80;;;;;;;;;;5059661;28;20556;-80
2022/09/15 04:30:03;;;;;;;1.40;1.02;;;;;;;;;;5041245;28;20556;-78
2022/09/15 04:32:30;;;;;;;1.08;0.80;;;;;;;;;;5047531;28;20436;-78
2022/09/15 04:35:00;;;;;;;0.80;0.80;;;;;;;;;;5046970;28;20441;-79
2022/09/15 04:37:27;;;;;;;1.20;1.10;;;;;;;;;;5052250;28;20792;-79
2022/09/15 04:39:54;;;;;;;1.47;1.17;;;;;;;;;;5052909;28;20540;-78
2022/09/15 04:42:21;;;;;;;0.83;0.83;;;;;;;;;;5052059;28;20425;-78
2022/09/15 04:44:48;;;;;;;1.02;1.00;;;;;;;;;;5052047;28;20437;-78
2022/09/15 04:47:16;;;;;;;1.00;1.00;;;;;;;;;;5053103;28;20465;-78
2022/09/15 04:49:43;;;;;;;1.20;1.10;;;;;;;;;;5072754;28;20427;-77
2022/09/15 04:52:10;;;;;;;1.00;1.00;;;;;;;;;;5065790;28;20432;-78
2022/09/15 04:54:40;;;;;;;1.58;1.48;;;;;;;;;;5044036;28;20457;-78
2022/09/15 04:57:08;;;;;;;1.10;1.10;;;;;;;;;;5051219;28;20425;-77
2022/09/15 04:59:37;;;;;;;1.55;1.38;;;;;;;;;;5034759;28;20436;-76
2022/09/15 05:02:04;;;;;;;1.48;1.33;;;;;;;;;;5050639;28;20425;-76
2022/09/15 05:04:32;;;;;;;1.60;1.48;;;;;;;;;;5050446;28;20437;-76
2022/09/15 05:06:59;;;;;;;1.60;1.40;;;;;;;;;;5061019;28;20481;-77
2022/09/15 05:09:28;;;;;;;2.53;1.15;;;;;;;;;;5046909;28;20487;-77
2022/09/15 05:11:55;;;;;;;1.20;1.10;;;;;;;;;;5049655;28;20429;-76
2022/09/15 05:14:22;;;;;;;1.75;1.65;;;;;;;;;;5043807;28;20437;-77
2022/09/15 05:16:49;;;;;;;1.70;1.60;;;;;;;;;;5041704;28;20437;-76
2022/09/15 05:19:19;;;;;;;1.00;1.00;;;;;;;;;;5046897;28;20439;-76
2022/09/15 05:21:46;;;;;;;1.13;1.05;;;;;;;;;;5048758;28;20433;-76
2022/09/15 05:24:13;;;;;;;1.55;1.38;;;;;;;;;;5040515;28;20429;-76
2022/09/15 05:26:40;;;;;;;1.23;1.23;;;;;;;;;;5049753;28;20487;-76
2022/09/15 05:29:07;;;;;;;1.02;0.90;;;;;;;;;;5044397;28;20511;-75
2022/09/15 05:31:34;;;;;;;1.25;1.20;;;;;;;;;;5044355;28;20432;-76
2022/09/15 05:34:03;;;;;;;1.67;1.42;;;;;;;;;;5045118;28;20436;-76
2022/09/15 05:36:30;;;;;;;1.20;1.20;;;;;;;;;;5044659;28;20429;-75
2022/09/15 05:38:57;;;;;;;1.30;1.20;;;;;;;;;;5043825;28;20487;-75
2022/09/15 05:41:27;;;;;;;0.77;0.77;;;;;;;;;;5048195;28;20505;-75
2022/09/15 05:43:58;;;;;;;1.25;1.15;;;;;;;;;;5043729;28;20479;-77
2022/09/15 05:46:26;;;;;;;1.33;0.82;;;;;;;;;;5045973;28;20454;-77
2022/09/15 05:48:55;;;;;;;1.05;0.90;;;;;;;;;;5044349;28;20524;-77
2022/09/15 05:51:22;;;;;;;1.10;1.05;;;;;;;;;;5036594;28;20440;-76
2022/09/15 05:53:49;;;;;;;1.40;0.95;;;;;;;;;;5035472;28;20433;-76
2022/09/15 05:56:17;;;;;;;0.70;0.70;;;;;;;;;;5048172;28;20790;-76
2022/09/15 05:58:45;;;;;;;1.20;1.20;;;;;;;;;;5038719;28;20463;-76
2022/09/15 06:01:25;;;;;;;0.80;0.80;;;;;;;;;;5034610;28;20443;-75
2022/09/15 06:03:53;;;;;;;1.00;0.90;;;;;;;;;;5043122;28;21015;-72
2022/09/15 06:06:21;;;;;;;0.95;0.95;;;;;;;;;;5043646;28;20496;-72
2022/09/15 06:08:49;;;;;;;0.77;0.77;;;;;;;;;;5036952;28;20434;-76
2022/09/15 06:11:25;;;;;;;0.70;0.70;;;;;;;;;;5044625;28;20524;-76
2022/09/15 06:13:52;;;;;;;0.82;0.70;;;;;;;;;;5040614;28;20441;-75
2022/09/15 06:16:21;;;;;;;0.55;0.55;;;;;;;;;;5048795;28;20437;-75
2022/09/15 06:18:48;;;;;;;0.68;0.68;;;;;;;;;;5039685;28;20429;-75
2022/09/15 06:21:26;;;;;;;0.70;0.70;;;;;;;;;;5048611;28;20483;-75
2022/09/15 06:23:55;;;;;;;0.80;0.80;;;;;;;;;;5045507;28;20907;-75
2022/09/15 06:26:22;;;;;;;0.80;0.80;;;;;;;;;;5034352;28;20478;-75
2022/09/15 06:28:51;;;;;;;0.70;0.70;;;;;;;;;;5044384;28;20452;-75
2022/09/15 06:31:18;;;;;;;0.57;0.57;;;;;;;;;;5032435;28;20917;-75
2022/09/15 06:33:47;;;;;;;0.80;0.80;;;;;;;;;;5047059;28;20441;-75
2022/09/15 06:36:15;;;;;;;1.00;1.00;;;;;;;;;;5052258;28;20426;-75
2022/09/15 06:38:43;;;;;;;0.70;0.70;;;;;;;;;;5049332;28;20907;-74
2022/09/15 06:41:10;;;;;;;0.60;0.60;;;;;;;;;;5056591;28;20437;-74
2022/09/15 06:43:38;;;;;;;0.83;0.83;;;;;;;;;;5049781;28;20432;-74
2022/09/15 06:46:06;;;;;;;1.00;0.70;;;;;;;;;;5045401;28;21675;-74
2022/09/15 06:48:34;;;;;;;0.80;0.80;;;;;;;;;;5047308;28;20543;-74
2022/09/15 06:51:02;;;;;;;0.82;0.82;;;;;;;;;;5050515;28;20452;-73
2022/09/15 06:53:33;;;;;;;0.73;0.73;;;;;;;;;;5054077;28;20783;-73
2022/09/15 06:56:16;;;;;;;0.60;0.60;;;;;;;;;;5063902;28;21000;-79
2022/09/15 06:58:44;;;;;;;1.90;0.60;;;;;;;;;;5048736;28;20522;-72
2022/09/15 07:01:19;;;;;;;1.00;0.70;;;;;;;;;;5045003;28;20433;-72
2022/09/15 07:03:46;;;;;;;0.75;0.75;;;;;;;;;;5035700;28;20433;-72
2022/09/15 07:06:13;;;;;;;1.08;0.95;;;;;;;;;;5045278;28;20532;-72
2022/09/15 07:08:41;;;;;;;0.73;0.73;;;;;;;;;;5050075;28;20423;-73
2022/09/15 07:11:09;;;;;;;0.93;0.93;;;;;;;;;;5052376;28;20487;-72
2022/09/15 07:13:36;;;;;;;0.85;0.85;;;;;;;;;;5010656;28;20596;-71
2022/09/15 07:16:28;;;;;;;1.15;0.93;;;;;;;;;;5079573;27;20391;-73
2022/09/15 07:18:59;;;;;;;0.70;0.70;;;;;;;;;;5062759;28;20439;-73
2022/09/15 07:21:29;;;;;;;0.70;0.70;;;;;;;;;;5061940;28;21097;-73
2022/09/15 07:23:57;;;;;;;0.68;0.68;;;;;;;;;;5064570;28;20438;-72
2022/09/15 07:26:27;;;;;;;0.70;0.70;;;;;;;;;;5055092;28;20428;-72
2022/09/15 07:28:56;;;;;;;0.55;0.55;;;;;;;;;;5057549;28;20838;-72
2022/09/15 07:31:27;;;;;;;0.40;0.40;;;;;;;;;;5066945;28;20476;-72
2022/09/15 07:33:54;;;;;;;0.50;0.50;;;;;;;;;;5060225;28;20471;-72
2022/09/15 07:36:22;;;;;;;0.60;0.60;;;;;;;;;;5047755;28;20495;-71
2022/09/15 07:38:52;;;;;;;0.50;0.50;;;;;;;;;;5062298;28;20426;-72
2022/09/15 07:41:21;;;;;;;0.50;0.50;;;;;;;;;;5061412;28;20917;-72
2022/09/15 07:43:50;;;;;;;0.40;0.40;;;;;;;;;;5090739;28;20426;-72
2022/09/15 07:46:19;;;;;;;0.45;0.45;;;;;;;;;;5051403;28;20471;-72
2022/09/15 07:48:47;;;;;;;0.55;0.55;;;;;;;;;;5062632;28;20432;-72
2022/09/15 07:51:14;;;;;;;0.70;0.65;;;;;;;;;;5067085;28;20484;-72
2022/09/15 07:53:42;;;;;;;0.45;0.45;;;;;;;;;;5059143;28;20436;-72
2022/09/15 07:56:09;;;;;;;0.50;0.47;;;;;;;;;;5061061;28;20433;-72
2022/09/15 07:58:37;;;;;;;0.60;0.60;;;;;;;;;;5059529;28;20530;-71
2022/09/15 08:01:05;;;;;;;0.45;0.45;;;;;;;;;;5063052;28;20433;-71
2022/09/15 08:03:33;;;;;;;0.60;0.60;;;;;;;;;;5054429;28;20420;-71
2022/09/15 08:06:01;;;;;;;0.40;0.40;;;;;;;;;;5058732;28;20501;-72
2022/09/15 08:08:29;;;;;;;0.35;0.35;;;;;;;;;;5060710;28;20473;-71
2022/09/15 08:10:59;;;;;;;0.40;0.40;;;;;;;;;;5055883;28;20451;-71
2022/09/15 08:13:28;;;;;;;0.32;0.32;;;;;;;;;;5056804;28;20764;-72
2022/09/15 08:15:55;;;;;;;0.40;0.40;;;;;;;;;;5070196;28;20834;-72
2022/09/15 08:18:22;;;;;;;0.50;0.50;;;;;;;;;;5079660;28;20767;-71
2022/09/15 08:20:49;;;;;;;0.82;0.65;;;;;;;;;;5078063;28;20484;-72
2022/09/15 08:23:17;;;;;;;0.70;0.50;;;;;;;;;;5084220;28;20514;-71
2022/09/15 08:25:44;;;;;;;0.60;0.60;;;;;;;;;;5075237;28;20854;-71
2022/09/15 08:28:11;;;;;;;0.40;0.40;;;;;;;;;;5062880;28;20834;-72
2022/09/15 08:30:38;;;;;;;0.80;0.60;;;;;;;;;;5054807;28;20454;-72
2022/09/15 08:33:05;;;;;;;0.50;0.50;;;;;;;;;;5057605;28;20979;-72
2022/09/15 08:35:33;;;;;;;0.40;0.40;;;;;;;;;;5064380;28;20436;-71
2022/09/15 08:38:00;;;;;;;0.40;0.40;;;;;;;;;;5059656;28;20643;-73
2022/09/15 08:40:30;;;;;;;0.30;0.30;;;;;;;;;;5064662;28;20427;-73
2022/09/15 08:42:59;;;;;;;0.45;0.45;;;;;;;;;;5068010;28;20432;-73
2022/09/15 08:45:28;;;;;;;0.45;0.45;;;;;;;;;;5062191;28;20436;-74
2022/09/15 08:47:58;;;;;;;0.85;0.85;;;;;;;;;;5061904;28;20439;-72
2022/09/15 08:50:30;;;;;;;0.50;0.50;;;;;;;;;;5062637;28;20430;-73
2022/09/15 08:53:11;;;;;;;0.40;0.40;;;;;;;;;;5062127;28;20448;-73
2022/09/15 08:55:39;;;;;;;0.80;0.50;;;;;;;;;;5065051;28;21130;-73
2022/09/15 08:58:13;;;;;;;0.35;0.35;;;;;;;;;;5061433;28;20524;-72
2022/09/15 09:00:41;;;;;;;0.43;0.43;;;;;;;;;;5068033;28;21104;-71
2022/09/15 09:03:15;;;;;;;0.45;0.45;;;;;;;;;;5066187;28;20431;-71
2022/09/15 09:05:53;;;;;;;0.50;0.50;;;;;;;;;;5063265;28;20471;-71
2022/09/15 09:08:26;;;;;;;0.43;0.43;;;;;;;;;;5071189;28;20421;-72
2022/09/15 09:10:56;;;;;;;0.80;0.70;;;;;;;;;;5069116;28;20979;-71
2022/09/15 09:13:38;;;;;;;0.60;0.60;;;;;;;;;;5059806;28;20432;-72
2022/09/15 09:16:14;;;;;;;0.40;0.40;;;;;;;;;;5049807;28;20435;-71
2022/09/15 09:18:48;;;;;;;1.20;0.68;;;;;;;;;;5057844;28;21012;-71
2022/09/15 09:21:25;;;;;;;0.80;0.80;;;;;;;;;;5060243;28;20439;-71
2022/09/15 09:23:56;;;;;;;0.55;0.55;;;;;;;;;;5053637;28;20429;-72
2022/09/15 09:26:24;;;;;;;0.70;0.70;;;;;;;;;;5060684;28;20429;-72
2022/09/15 09:29:01;;;;;;;0.68;0.68;;;;;;;;;;5041940;28;20514;-72
2022/09/15 09:31:28;;;;;;;2.30;0.70;;;;;;;;;;5064149;28;20427;-71
2022/09/15 09:34:25;;;;;;;0.70;0.70;;;;;;;;;;5050914;28;20927;-72
2022/09/15 09:36:59;;;;;;;0.60;0.60;;;;;;;;;;4960209;28;20442;-71
2022/09/15 09:39:27;;;;;;;0.70;0.70;;;;;;;;;;5056548;28;20907;-72
2022/09/15 09:41:57;;;;;;;0.70;0.70;;;;;;;;;;5063149;28;20488;-71
2022/09/15 09:44:30;;;;;;;0.85;0.85;;;;;;;;;;5082204;28;20443;-71
2022/09/15 09:46:59;;;;;;;1.10;1.10;;;;;;;;;;5052793;28;20417;-71
2022/09/15 09:49:44;;;;;;;0.85;0.85;;;;;;;;;;5052006;28;20515;-70
2022/09/15 09:52:11;;;;;;;0.93;0.93;;;;;;;;;;5065825;28;20454;-70
2022/09/15 09:54:50;;;;;;;0.82;0.82;;;;;;;;;;5065045;28;20426;-69
2022/09/15 09:57:26;;;;;;;1.00;1.00;;;;;;;;;;5056388;28;20607;-71
2022/09/15 09:59:54;;;;;;;0.80;0.80;;;;;;;;;;5068004;28;20752;-71
2022/09/15 10:02:27;;;;;;;1.10;1.10;;;;;;;;;;5070183;28;20472;-71
2022/09/15 10:05:11;;;;;;;1.03;1.03;;;;;;;;;;5058231;28;20454;-72
2022/09/15 10:07:45;;;;;;;1.02;1.02;;;17.20;99.90;;;;;;5050187;28;20419;-71
2022/09/15 10:10:24;;;;;;;0.90;0.90;;;21.00;99.90;;;;;;5062613;28;20452;-71
2022/09/15 10:12:55;;;;;;;1.17;1.10;;;20.60;99.90;;;;;;5057830;28;20445;-71
2022/09/15 10:15:31;;;;;;;1.00;1.00;;;20.50;99.90;;;;;;5064805;28;20434;-71
2022/09/15 10:17:58;;;;;;;0.70;0.70;;;20.40;99.90;;;;;;5060349;28;20423;-70
2022/09/15 10:20:31;;;;;;;1.00;1.00;;;20.30;99.90;;;;;;5068189;28;20454;-70
2022/09/15 10:23:16;;;;;;;1.05;1.05;;;20.40;99.90;;;;;;5057481;28;20502;-70
2022/09/15 10:25:44;;;;;;;0.95;0.95;;;20.80;99.90;;;;;;5074285;28;20425;-71
2022/09/15 10:28:26;;;;;;;1.10;1.00;;;21.10;99.90;;;;;;5060292;28;20543;-70
2022/09/15 10:31:30;;;;;;;0.95;0.93;;;21.50;99.90;;;;;;5065749;28;20510;-70
2022/09/15 10:33:57;;;;;;;2.20;1.30;;;22.20;99.90;;;;;;5065965;28;20440;-70
2022/09/15 10:36:31;;;;;;;1.30;1.20;;;22.00;99.90;;;;;;5061238;28;20430;-71
2022/09/15 10:39:12;;;;;;;0.90;0.90;;;22.20;99.90;;;;;;5060775;28;20476;-70
2022/09/15 10:41:58;;;;;;;1.02;1.02;;;22.50;99.90;;;;;;5063517;28;21190;-71
2022/09/15 10:45:02;;;;;;;1.50;0.80;;;23.10;99.90;;;;;;5058766;28;20452;-68
2022/09/15 10:48:07;;;;;;;1.55;1.10;;;23.70;99.90;;;;;;5061260;28;21564;-67
2022/09/15 10:50:53;;;;;;;1.40;1.30;;;24.10;99.90;;;;;;5064344;28;20493;-67
2022/09/15 10:53:39;;;;;;;1.30;1.20;;;24.40;99.90;;;;;;5051632;28;20546;-68
2022/09/15 10:56:11;;;;;;;2.20;1.45;;;24.10;99.90;;;;;;5059768;28;20433;-67
2022/09/15 10:59:16;;;;;;;1.30;1.25;;;24.00;99.90;;;;;;5056768;28;20438;-67
2022/09/15 11:01:58;;;;;;;1.10;1.10;;;24.00;99.90;;;;;;5064993;28;20439;-67
2022/09/15 11:04:53;;;;;;;1.60;1.05;;;23.90;99.90;;;;;;5062784;28;20427;-67
2022/09/15 11:07:46;;;;;;;1.20;1.10;;;23.70;99.90;;;;;;5058630;28;21412;-67
2022/09/15 11:10:41;;;;;;;1.30;1.20;;;24.20;99.90;;;;;;5062337;28;20443;-67
2022/09/15 11:13:49;;;;;;;1.60;1.50;;;24.90;99.90;;;;;;5076968;28;20446;-66
2022/09/15 11:16:47;;;;;;;1.40;1.30;;;24.10;99.90;;;;;;5061788;28;20458;-69
2022/09/15 11:19:23;;;;;;;1.30;1.20;;;22.90;99.90;;;;;;5061042;28;20416;-69
2022/09/15 11:22:01;;;;;;;1.27;1.27;;;22.20;99.90;;;;;;5061546;28;20460;-69
2022/09/15 11:24:40;;;;;;;1.55;1.45;;;21.90;99.90;;;;;;5064525;28;21121;-68
2022/09/15 11:27:13;;;;;;;1.80;1.70;;;21.70;99.90;;;;;;5056765;28;20434;-68
2022/09/15 11:29:46;;;;;;;1.55;1.55;;;21.60;99.90;;;;;;5063251;28;20528;-69
2022/09/15 11:32:18;;;;;;;1.55;1.45;;;21.40;99.90;;;;;;5065173;28;20435;-70
2022/09/15 11:34:59;;;;;;;1.85;1.75;;;21.10;99.90;;;;;;5054516;28;20469;-69
2022/09/15 11:37:35;;;;;;;1.40;1.30;;;21.00;99.90;;;;;;5057384;28;20929;-69
2022/09/15 11:40:20;;;;;;;1.40;1.30;;;21.20;99.90;;;;;;5062060;28;20496;-68
2022/09/15 11:43:12;;;;;;;1.25;1.17;;;21.30;99.90;;;;;;5056716;28;20443;-70
2022/09/15 11:45:46;;;;;;;0.90;0.90;;;21.50;99.90;;;;;;5058832;28;20435;-68
2022/09/15 11:48:18;;;;;;;1.30;1.20;;;21.70;99.90;;;;;;5060211;28;20439;-68
2022/09/15 11:50:47;;;;;;;1.70;1.20;;;22.00;99.90;;;;;;5055162;28;20431;-69
2022/09/15 11:53:35;;;;;;;2.20;1.50;;;22.10;99.90;;;;;;5058204;28;20461;-68
2022/09/15 11:56:20;;;;;;;1.23;1.08;;;22.00;99.90;;;;;;5059694;28;20442;-69
2022/09/15 11:59:00;;;;;;;1.58;1.48;;;22.80;99.90;;;;;;5072932;28;20431;-70
2022/09/15 12:01:42;;;;;;;1.35;1.30;;;23.30;99.90;;;;;;5050287;28;20472;-68
2022/09/15 12:04:19;;;;;;;1.60;1.20;;;23.20;99.90;;;;;;5056797;28;20435;-69
2022/09/15 12:07:22;;;;;;;1.67;1.35;;;22.90;99.90;;;;;;5060245;28;20431;-68
2022/09/15 12:09:49;;;;;;;1.13;1.05;;;23.10;99.90;;;;;;5072877;28;20435;-68
2022/09/15 12:12:21;;;;;;;1.00;1.00;;;23.50;99.90;;;;;;5063699;28;20828;-68
2022/09/15 12:14:51;;;;;;;0.88;0.88;;;23.40;99.90;;;;;;5069106;28;20427;-68
2022/09/15 12:17:37;;;;;;;0.90;0.90;;;23.00;99.90;;;;;;5066113;28;20446;-68
2022/09/15 12:20:18;;;;;;;1.30;1.02;;;23.20;99.90;;;;;;5061773;28;20974;-68
2022/09/15 12:22:56;;;;;;;1.03;0.97;;;23.00;99.90;;;;;;5065159;28;20435;-68
2022/09/15 12:25:34;;;;;;;0.80;0.80;;;23.10;99.90;;;;;;5061469;28;20936;-68
2022/09/15 12:28:23;;;;;;;0.70;0.70;;;23.10;99.90;;;;;;5064652;28;20424;-68
2022/09/15 12:31:10;;;;;;;1.17;1.10;;;23.70;99.90;;;;;;5057799;28;20567;-68
2022/09/15 12:33:45;;;;;;;0.95;0.95;;;24.60;99.90;;;;;;5069285;28;20486;-68
2022/09/15 12:36:30;;;;;;;0.75;0.75;;;25.20;99.90;;;;;;5046879;28;20431;-68
2022/09/15 12:38:59;;;;;;;0.70;0.70;;;25.60;99.90;;;;;;5062719;28;20511;-68
2022/09/15 12:41:27;;;;;;;0.80;0.70;;;24.80;99.90;;;;;;5058756;28;20807;-68
2022/09/15 12:43:56;;;;;;;0.80;0.80;;;23.90;99.90;;;;;;5060589;28;21158;-68
2022/09/15 12:46:24;;;;;;;1.90;0.90;;;23.50;99.90;;;;;;5050838;28;20429;-68
2022/09/15 12:49:01;;;;;;;0.70;0.70;;;23.50;99.90;;;;;;5060934;28;20908;-70
2022/09/15 12:51:28;;;;;;;0.77;0.77;;;23.60;99.90;;;;;;5058724;28;20471;-68
2022/09/15 12:53:59;;;;;;;0.40;0.40;;;23.90;99.90;;;;;;5057587;28;20441;-68
2022/09/15 12:56:29;;;;;;;0.60;0.60;;;24.10;99.90;;;;;;5059154;28;20436;-68
2022/09/15 12:59:05;;;;;;;0.60;0.60;;;23.70;99.90;;;;;;5054570;28;20519;-67
2022/09/15 13:01:47;;;;;;;0.52;0.52;;;22.90;99.90;;;;;;5061373;28;20434;-67
2022/09/15 13:04:40;;;;;;;0.70;0.70;;;21.90;99.90;;;;;;5060631;28;20439;-68
2022/09/15 13:07:16;;;;;;;0.55;0.55;;;21.00;99.90;;;;;;5059532;28;20767;-68
2022/09/15 13:10:14;;;;;;;0.68;0.68;;;20.60;99.90;;;;;;5063128;28;20435;-68
2022/09/15 13:12:50;;;;;;;0.93;0.77;;;20.60;99.90;;;;;;5066883;28;20432;-68
2022/09/15 13:15:24;;;;;;;0.85;0.85;;;20.60;99.90;;;;;;5067457;28;20817;-68
2022/09/15 13:17:51;;;;;;;0.88;0.85;;;20.80;99.90;;;;;;5071929;28;20436;-68
2022/09/15 13:20:24;;;;;;;0.80;0.80;;;21.00;99.90;;;;;;5062132;28;20481;-68
2022/09/15 13:22:55;;;;;;;0.70;0.70;;;21.00;99.90;;;;;;5070488;28;20487;-68
2022/09/15 13:25:28;;;;;;;0.57;0.50;;;21.20;99.90;;;;;;5047454;28;20452;-68
2022/09/15 13:28:02;;;;;;;0.65;0.65;;;21.50;99.90;;;;;;5063335;28;20911;-68
2022/09/15 13:31:03;;;;;;;0.80;0.60;;;21.70;99.90;;;;;;5073718;28;20563;-67
2022/09/15 13:34:07;;;;;;;0.70;0.70;;;21.80;99.90;;;;;;5061190;28;20431;-67
2022/09/15 13:37:22;;;;;;;0.70;0.70;;;21.80;99.90;;;;;;5055458;28;20419;-68
2022/09/15 13:40:46;;;;;;;0.77;0.77;;;21.90;99.90;;;;;;5060285;28;20430;-67
2022/09/15 13:43:28;;;;;;;1.90;0.65;;;22.10;99.90;;;;;;5065626;28;20437;-67
2022/09/15 13:46:34;;;;;;;0.80;0.80;;;22.00;99.90;;;;;;5068836;28;20444;-67
2022/09/15 13:49:24;;;;;;;0.80;0.80;;;21.90;99.90;;;;;;5031462;28;20501;-67
2022/09/15 13:52:00;;;;;;;0.77;0.77;;;22.00;99.90;;;;;;5047393;28;20431;-67
2022/09/15 13:54:27;;;;;;;0.60;0.60;;;22.30;99.90;;;;;;5060164;28;20433;-67
2022/09/15 13:57:00;;;;;;;0.70;0.70;;;22.70;99.90;;;;;;5052367;28;20961;-67
2022/09/15 13:59:31;;;;;;;0.60;0.60;;;23.00;99.90;;;;;;5061181;28;20475;-67
2022/09/15 14:01:59;;;;;;;0.80;0.80;;;23.10;99.90;;;;;;5070350;28;20423;-67
2022/09/15 14:04:30;;;;;;;0.60;0.60;;;23.00;99.90;;;;;;5063718;28;20473;-67
2022/09/15 14:06:59;;;;;;;0.70;0.70;;;23.30;99.90;;;;;;5062497;28;20445;-67
2022/09/15 14:09:42;;;;;;;0.60;0.60;;;23.20;99.90;;;;;;5054811;28;20440;-66
2022/09/15 14:12:12;;;;;;;0.65;0.65;;;23.30;99.90;;;;;;5064546;28;20450;-67
2022/09/15 14:14:53;;;;;;;0.70;0.70;;;22.90;99.90;;;;;;5065221;28;20927;-66
2022/09/15 14:17:28;;;;;;;0.70;0.70;;;22.70;99.90;;;;;;5068048;28;20427;-67
2022/09/15 14:19:57;;;;;;;0.63;0.63;;;22.70;99.90;;;;;;5070894;28;20435;-67
2022/09/15 14:22:33;;;;;;;0.80;0.80;;;22.60;99.90;;;;;;5064770;28;20428;-66
2022/09/15 14:25:13;;;;;;;0.70;0.70;;;22.70;99.90;;;;;;5063587;28;20853;-67
2022/09/15 14:27:44;;;;;;;0.60;0.60;;;22.70;99.90;;;;;;5053601;28;20444;-67
2022/09/15 14:30:30;;;;;;;0.60;0.60;;;22.80;99.90;;;;;;5066549;28;20913;-67
2022/09/15 14:32:59;;;;;;;0.70;0.70;;;23.10;99.90;;;;;;5071210;28;20915;-67
2022/09/15 14:35:32;;;;;;;0.70;0.70;;;23.60;99.90;;;;;;5057865;28;20437;-67
2022/09/15 14:38:00;;;;;;;0.80;0.80;;;23.50;99.90;;;;;;5066481;28;20497;-67
2022/09/15 14:40:36;;;;;;;0.68;0.68;;;23.10;99.90;;;;;;5067318;28;20459;-67